sensor_id;sensor_type;location;lat;lon;timestamp;pressure;altitude;pressure_sealevel;temperature;humidity
53719;BME280;39616;48.872;9.390;2023-05-07T00:01:09;98247.19;;;12.68;100.00
53719;BME280;39616;48.872;9.390;2023-05-07T00:03:41;98232.78;;;12.68;100.00
53719;BME280;39616;48.872;9.390;2023-05-07T00:06:11;98235.78;;;12.66;100.00
53719;BME280;39616;48.872;9.390;2023-05-07T00:08:42;98236.13;;;12.65;100.00
53719;BME280;39616;48.872;9.390;2023-05-07T00:11:12;98238.03;;;12.64;100.00
53719;BME280;39616;48.872;9.390;2023-05-07T00:13:43;98242.06;;;12.67;100.00
53719;BME280;39616;48.872;9.390;2023-05-07T00:16:13;98234.19;;;12.65;100.00
53719;BME280;39616;48.872;9.390;2023-05-07T00:18:44;98232.09;;;12.62;100.00
53719;BME280;39616;48.872;9.390;2023-05-07T00:21:15;98232.91;;;12.63;100.00
53719;BME280;39616;48.872;9.390;2023-05-07T00:23:45;98234.34;;;12.60;100.00
53719;BME280;39616;48.872;9.390;2023-05-07T00:26:15;98237.19;;;12.55;100.00
53719;BME280;39616;48.872;9.390;2023-05-07T00:28:46;98237.19;;;12.55;100.00
53719;BME280;39616;48.872;9.390;2023-05-07T00:31:16;98229.00;;;12.55;100.00
53719;BME280;39616;48.872;9.390;2023-05-07T00:33:46;98223.41;;;12.51;100.00
53719;BME280;39616;48.872;9.390;2023-05-07T00:36:17;98222.75;;;12.46;100.00
53719;BME280;39616;48.872;9.390;2023-05-07T00:38:47;98221.88;;;12.37;100.00
53719;BME280;39616;48.872;9.390;2023-05-07T00:41:17;98218.50;;;12.31;100.00
53719;BME280;39616;48.872;9.390;2023-05-07T00:43:48;98218.25;;;12.19;100.00
53719;BME280;39616;48.872;9.390;2023-05-07T00:46:20;98217.88;;;12.12;100.00
53719;BME280;39616;48.872;9.390;2023-05-07T00:48:50;98214.16;;;12.07;100.00
53719;BME280;39616;48.872;9.390;2023-05-07T00:51:21;98205.34;;;12.02;100.00
53719;BME280;39616;48.872;9.390;2023-05-07T00:53:52;98206.44;;;12.01;100.00
53719;BME280;39616;48.872;9.390;2023-05-07T00:56:23;98207.53;;;12.00;100.00
53719;BME280;39616;48.872;9.390;2023-05-07T00:58:54;98193.16;;;11.99;100.00
53719;BME280;39616;48.872;9.390;2023-05-07T01:01:25;98195.25;;;12.02;100.00
53719;BME280;39616;48.872;9.390;2023-05-07T01:03:56;98204.22;;;12.03;100.00
53719;BME280;39616;48.872;9.390;2023-05-07T01:06:28;98201.69;;;12.06;100.00
53719;BME280;39616;48.872;9.390;2023-05-07T01:08:59;98202.38;;;12.12;100.00
53719;BME280;39616;48.872;9.390;2023-05-07T01:11:30;98196.13;;;12.12;100.00
53719;BME280;39616;48.872;9.390;2023-05-07T01:14:01;98201.75;;;12.15;100.00
53719;BME280;39616;48.872;9.390;2023-05-07T01:16:32;98203.03;;;12.18;100.00
53719;BME280;39616;48.872;9.390;2023-05-07T01:19:03;98204.59;;;12.10;100.00
53719;BME280;39616;48.872;9.390;2023-05-07T01:21:34;98200.69;;;12.02;100.00
53719;BME280;39616;48.872;9.390;2023-05-07T01:24:07;98205.75;;;11.95;100.00
53719;BME280;39616;48.872;9.390;2023-05-07T01:26:38;98204.06;;;11.85;100.00
53719;BME280;39616;48.872;9.390;2023-05-07T01:29:10;98210.72;;;11.79;100.00
53719;BME280;39616;48.872;9.390;2023-05-07T01:31:42;98207.31;;;11.74;100.00
53719;BME280;39616;48.872;9.390;2023-05-07T01:34:13;98210.63;;;11.71;100.00
53719;BME280;39616;48.872;9.390;2023-05-07T01:36:46;98201.41;;;11.58;100.00
53719;BME280;39616;48.872;9.390;2023-05-07T01:39:17;98201.75;;;11.56;100.00
53719;BME280;39616;48.872;9.390;2023-05-07T01:41:47;98205.16;;;11.48;100.00
53719;BME280;39616;48.872;9.390;2023-05-07T01:44:19;98204.75;;;11.41;100.00
53719;BME280;39616;48.872;9.390;2023-05-07T01:46:49;98209.00;;;11.33;100.00
53719;BME280;39616;48.872;9.390;2023-05-07T01:49:20;98212.44;;;11.25;100.00
53719;BME280;39616;48.872;9.390;2023-05-07T01:51:51;98201.09;;;11.23;100.00
53719;BME280;39616;48.872;9.390;2023-05-07T01:54:27;98202.50;;;11.21;100.00
53719;BME280;39616;48.872;9.390;2023-05-07T01:56:58;98204.09;;;11.22;100.00
53719;BME280;39616;48.872;9.390;2023-05-07T01:59:28;98201.69;;;11.20;100.00
53719;BME280;39616;48.872;9.390;2023-05-07T02:01:58;98196.75;;;11.22;100.00
53719;BME280;39616;48.872;9.390;2023-05-07T02:04:29;98200.06;;;11.19;100.00
53719;BME280;39616;48.872;9.390;2023-05-07T02:06:59;98191.72;;;11.16;100.00
53719;BME280;39616;48.872;9.390;2023-05-07T02:09:29;98194.56;;;11.10;100.00
53719;BME280;39616;48.872;9.390;2023-05-07T02:12:00;98192.16;;;11.09;100.00
53719;BME280;39616;48.872;9.390;2023-05-07T02:14:30;98194.06;;;11.08;100.00
53719;BME280;39616;48.872;9.390;2023-05-07T02:17:01;98190.13;;;11.01;100.00
53719;BME280;39616;48.872;9.390;2023-05-07T02:19:32;98194.16;;;11.03;100.00
53719;BME280;39616;48.872;9.390;2023-05-07T02:22:02;98203.31;;;10.94;100.00
53719;BME280;39616;48.872;9.390;2023-05-07T02:24:32;98191.94;;;10.92;100.00
53719;BME280;39616;48.872;9.390;2023-05-07T02:27:03;98198.50;;;10.91;100.00
53719;BME280;39616;48.872;9.390;2023-05-07T02:29:33;98202.59;;;10.88;100.00
53719;BME280;39616;48.872;9.390;2023-05-07T02:32:03;98204.00;;;10.85;100.00
53719;BME280;39616;48.872;9.390;2023-05-07T02:34:34;98202.00;;;10.77;100.00
53719;BME280;39616;48.872;9.390;2023-05-07T02:37:04;98206.94;;;10.75;100.00
53719;BME280;39616;48.872;9.390;2023-05-07T02:39:34;98206.94;;;10.75;100.00
53719;BME280;39616;48.872;9.390;2023-05-07T02:42:05;98205.59;;;10.73;100.00
53719;BME280;39616;48.872;9.390;2023-05-07T02:44:35;98202.69;;;10.69;100.00
53719;BME280;39616;48.872;9.390;2023-05-07T02:47:05;98212.44;;;10.70;100.00
53719;BME280;39616;48.872;9.390;2023-05-07T02:49:38;98203.19;;;10.71;100.00
53719;BME280;39616;48.872;9.390;2023-05-07T02:52:08;98201.00;;;10.73;100.00
53719;BME280;39616;48.872;9.390;2023-05-07T02:54:39;98202.69;;;10.69;100.00
53719;BME280;39616;48.872;9.390;2023-05-07T02:57:09;98197.34;;;10.64;100.00
53719;BME280;39616;48.872;9.390;2023-05-07T02:59:39;98203.69;;;10.59;100.00
53719;BME280;39616;48.872;9.390;2023-05-07T03:02:10;98192.94;;;10.54;100.00
53719;BME280;39616;48.872;9.390;2023-05-07T03:04:40;98200.34;;;10.49;100.00
53719;BME280;39616;48.872;9.390;2023-05-07T03:07:11;98199.34;;;10.45;100.00
53719;BME280;39616;48.872;9.390;2023-05-07T03:09:41;98205.97;;;10.38;100.00
53719;BME280;39616;48.872;9.390;2023-05-07T03:12:11;98199.22;;;10.36;100.00
53719;BME280;39616;48.872;9.390;2023-05-07T03:14:42;98197.09;;;10.33;100.00
53719;BME280;39616;48.872;9.390;2023-05-07T03:17:12;98200.19;;;10.26;100.00
53719;BME280;39616;48.872;9.390;2023-05-07T03:19:42;98190.16;;;10.27;100.00
53719;BME280;39616;48.872;9.390;2023-05-07T03:22:12;98191.69;;;10.33;100.00
53719;BME280;39616;48.872;9.390;2023-05-07T03:24:43;98183.75;;;10.36;100.00
53719;BME280;39616;48.872;9.390;2023-05-07T03:27:13;98173.44;;;10.38;100.00
53719;BME280;39616;48.872;9.390;2023-05-07T03:29:43;98178.66;;;10.35;100.00
53719;BME280;39616;48.872;9.390;2023-05-07T03:32:14;98176.00;;;10.30;100.00
53719;BME280;39616;48.872;9.390;2023-05-07T03:34:44;98180.16;;;10.27;100.00
53719;BME280;39616;48.872;9.390;2023-05-07T03:37:15;98184.81;;;10.22;100.00
53719;BME280;39616;48.872;9.390;2023-05-07T03:39:45;98187.50;;;10.22;100.00
53719;BME280;39616;48.872;9.390;2023-05-07T03:42:15;98182.41;;;10.20;100.00
53719;BME280;39616;48.872;9.390;2023-05-07T03:44:46;98181.28;;;10.21;100.00
53719;BME280;39616;48.872;9.390;2023-05-07T03:47:16;98192.41;;;10.20;100.00
53719;BME280;39616;48.872;9.390;2023-05-07T03:49:46;98196.22;;;10.19;100.00
53719;BME280;39616;48.872;9.390;2023-05-07T03:52:18;98196.44;;;10.22;100.00
53719;BME280;39616;48.872;9.390;2023-05-07T03:54:53;98196.16;;;10.24;100.00
53719;BME280;39616;48.872;9.390;2023-05-07T03:57:23;98199.94;;;10.23;100.00
53719;BME280;39616;48.872;9.390;2023-05-07T03:59:53;98192.94;;;10.22;100.00
53719;BME280;39616;48.872;9.390;2023-05-07T04:02:24;98203.25;;;10.20;100.00
53719;BME280;39616;48.872;9.390;2023-05-07T04:04:54;98196.81;;;10.15;100.00
53719;BME280;39616;48.872;9.390;2023-05-07T04:07:24;98198.22;;;10.13;100.00
53719;BME280;39616;48.872;9.390;2023-05-07T04:09:55;98201.22;;;10.11;100.00
53719;BME280;39616;48.872;9.390;2023-05-07T04:12:25;98200.13;;;10.12;100.00
53719;BME280;39616;48.872;9.390;2023-05-07T04:14:55;98200.41;;;10.11;100.00
53719;BME280;39616;48.872;9.390;2023-05-07T04:17:26;98205.84;;;10.11;100.00
53719;BME280;39616;48.872;9.390;2023-05-07T04:19:56;98200.94;;;10.13;100.00
53719;BME280;39616;48.872;9.390;2023-05-07T04:22:26;98201.16;;;10.16;100.00
53719;BME280;39616;48.872;9.390;2023-05-07T04:24:57;98207.28;;;10.22;100.00
53719;BME280;39616;48.872;9.390;2023-05-07T04:27:27;98206.56;;;10.35;100.00
53719;BME280;39616;48.872;9.390;2023-05-07T04:29:58;98204.75;;;10.45;100.00
53719;BME280;39616;48.872;9.390;2023-05-07T04:32:29;98209.41;;;10.58;100.00
53719;BME280;39616;48.872;9.390;2023-05-07T04:34:59;98212.16;;;10.72;100.00
53719;BME280;39616;48.872;9.390;2023-05-07T04:37:32;98212.25;;;10.80;100.00
53719;BME280;39616;48.872;9.390;2023-05-07T04:40:02;98214.47;;;10.92;100.00
53719;BME280;39616;48.872;9.390;2023-05-07T04:42:33;98209.63;;;11.03;100.00
53719;BME280;39616;48.872;9.390;2023-05-07T04:45:04;98209.31;;;11.18;100.00
53719;BME280;39616;48.872;9.390;2023-05-07T04:47:35;98206.28;;;11.33;100.00
53719;BME280;39616;48.872;9.390;2023-05-07T04:50:06;98205.34;;;11.52;100.00
53719;BME280;39616;48.872;9.390;2023-05-07T04:52:38;98212.06;;;11.68;100.00
53719;BME280;39616;48.872;9.390;2023-05-07T04:55:08;98211.75;;;11.83;100.00
53719;BME280;39616;48.872;9.390;2023-05-07T04:57:39;98211.56;;;12.02;100.00
53719;BME280;39616;48.872;9.390;2023-05-07T05:00:11;98213.91;;;12.18;100.00
53719;BME280;39616;48.872;9.390;2023-05-07T05:02:44;98220.41;;;12.30;100.00
53719;BME280;39616;48.872;9.390;2023-05-07T05:05:14;98221.38;;;12.35;100.00
53719;BME280;39616;48.872;9.390;2023-05-07T05:07:44;98229.13;;;12.41;100.00
53719;BME280;39616;48.872;9.390;2023-05-07T05:10:15;98226.44;;;12.50;100.00
53719;BME280;39616;48.872;9.390;2023-05-07T05:12:46;98228.03;;;12.51;100.00
53719;BME280;39616;48.872;9.390;2023-05-07T05:15:16;98227.09;;;12.55;99.53
53719;BME280;39616;48.872;9.390;2023-05-07T05:17:47;98232.53;;;12.55;99.80
53719;BME280;39616;48.872;9.390;2023-05-07T05:20:17;98227.94;;;12.56;99.03
53719;BME280;39616;48.872;9.390;2023-05-07T05:22:48;98233.97;;;12.53;99.21
53719;BME280;39616;48.872;9.390;2023-05-07T05:25:18;98236.19;;;12.51;100.00
53719;BME280;39616;48.872;9.390;2023-05-07T05:27:48;98239.41;;;12.53;100.00
53719;BME280;39616;48.872;9.390;2023-05-07T05:30:19;98244.53;;;12.54;100.00
53719;BME280;39616;48.872;9.390;2023-05-07T05:32:49;98250.47;;;12.56;100.00
53719;BME280;39616;48.872;9.390;2023-05-07T05:35:19;98251.66;;;12.64;100.00
53719;BME280;39616;48.872;9.390;2023-05-07T05:37:50;98242.53;;;12.69;100.00
53719;BME280;39616;48.872;9.390;2023-05-07T05:40:20;98236.84;;;12.79;99.61
53719;BME280;39616;48.872;9.390;2023-05-07T05:42:50;98238.00;;;12.87;97.32
53719;BME280;39616;48.872;9.390;2023-05-07T05:45:21;98236.00;;;13.10;97.28
53719;BME280;39616;48.872;9.390;2023-05-07T05:47:51;98235.63;;;13.34;96.40
53719;BME280;39616;48.872;9.390;2023-05-07T05:50:21;98240.31;;;13.50;93.85
53719;BME280;39616;48.872;9.390;2023-05-07T05:52:52;98237.63;;;13.59;92.38
53719;BME280;39616;48.872;9.390;2023-05-07T05:55:22;98240.34;;;13.68;91.55
53719;BME280;39616;48.872;9.390;2023-05-07T05:57:52;98234.59;;;13.87;91.18
53719;BME280;39616;48.872;9.390;2023-05-07T06:00:23;98243.25;;;13.97;86.29
53719;BME280;39616;48.872;9.390;2023-05-07T06:02:53;98249.50;;;14.15;86.35
53719;BME280;39616;48.872;9.390;2023-05-07T06:05:23;98247.59;;;14.33;86.50
53719;BME280;39616;48.872;9.390;2023-05-07T06:07:54;98233.63;;;14.43;86.73
53719;BME280;39616;48.872;9.390;2023-05-07T06:10:24;98244.34;;;14.57;84.59
53719;BME280;39616;48.872;9.390;2023-05-07T06:12:55;98247.69;;;14.80;83.12
53719;BME280;39616;48.872;9.390;2023-05-07T06:15:26;98249.28;;;15.19;82.19
53719;BME280;39616;48.872;9.390;2023-05-07T06:17:56;98249.28;;;15.49;77.17
53719;BME280;39616;48.872;9.390;2023-05-07T06:20:27;98243.81;;;15.79;74.43
53719;BME280;39616;48.872;9.390;2023-05-07T06:22:57;98244.84;;;15.95;73.09
53719;BME280;39616;48.872;9.390;2023-05-07T06:25:28;98250.50;;;16.32;71.26
53719;BME280;39616;48.872;9.390;2023-05-07T06:27:58;98248.22;;;16.34;70.19
53719;BME280;39616;48.872;9.390;2023-05-07T06:30:28;98250.53;;;16.44;69.71
53719;BME280;39616;48.872;9.390;2023-05-07T06:32:58;98248.28;;;16.46;68.57
53719;BME280;39616;48.872;9.390;2023-05-07T06:35:29;98259.00;;;16.51;68.29
53719;BME280;39616;48.872;9.390;2023-05-07T06:38:00;98253.00;;;16.70;67.79
53719;BME280;39616;48.872;9.390;2023-05-07T06:40:30;98259.03;;;16.97;68.13
53719;BME280;39616;48.872;9.390;2023-05-07T06:43:00;98249.94;;;17.29;66.96
53719;BME280;39616;48.872;9.390;2023-05-07T06:45:31;98257.03;;;17.43;66.10
53719;BME280;39616;48.872;9.390;2023-05-07T06:48:01;98267.41;;;17.37;66.45
53719;BME280;39616;48.872;9.390;2023-05-07T06:50:31;98256.31;;;17.58;66.83
53719;BME280;39616;48.872;9.390;2023-05-07T06:53:02;98260.53;;;17.55;66.04
53719;BME280;39616;48.872;9.390;2023-05-07T06:55:33;98253.38;;;17.38;66.60
53719;BME280;39616;48.872;9.390;2023-05-07T06:58:03;98260.66;;;17.47;66.68
53719;BME280;39616;48.872;9.390;2023-05-07T07:00:34;98251.88;;;17.41;66.85
53719;BME280;39616;48.872;9.390;2023-05-07T07:03:05;98264.56;;;17.46;67.17
53719;BME280;39616;48.872;9.390;2023-05-07T07:05:35;98252.78;;;17.57;66.62
53719;BME280;39616;48.872;9.390;2023-05-07T07:08:05;98249.00;;;17.86;66.11
53719;BME280;39616;48.872;9.390;2023-05-07T07:10:36;98256.47;;;18.14;64.84
53719;BME280;39616;48.872;9.390;2023-05-07T07:13:06;98241.81;;;18.50;64.39
53719;BME280;39616;48.872;9.390;2023-05-07T07:15:36;98241.81;;;18.78;63.50
53719;BME280;39616;48.872;9.390;2023-05-07T07:18:06;98245.25;;;18.75;62.45
53719;BME280;39616;48.872;9.390;2023-05-07T07:20:37;98248.69;;;18.72;61.63
53719;BME280;39616;48.872;9.390;2023-05-07T07:23:07;98242.44;;;19.19;61.56
53719;BME280;39616;48.872;9.390;2023-05-07T07:25:38;98246.31;;;19.66;60.94
53719;BME280;39616;48.872;9.390;2023-05-07T07:28:08;98244.75;;;19.84;59.33
53719;BME280;39616;48.872;9.390;2023-05-07T07:30:39;98239.56;;;19.98;58.94
53719;BME280;39616;48.872;9.390;2023-05-07T07:33:09;98239.06;;;20.32;57.40
53719;BME280;39616;48.872;9.390;2023-05-07T07:35:39;98232.97;;;20.81;57.84
53719;BME280;39616;48.872;9.390;2023-05-07T07:38:10;98232.19;;;21.53;57.04
53719;BME280;39616;48.872;9.390;2023-05-07T07:40:40;98235.91;;;21.37;53.94
53719;BME280;39616;48.872;9.390;2023-05-07T07:43:10;98236.22;;;21.32;53.95
53719;BME280;39616;48.872;9.390;2023-05-07T07:45:41;98240.06;;;21.05;54.54
53719;BME280;39616;48.872;9.390;2023-05-07T07:48:11;98245.00;;;20.72;56.24
53719;BME280;39616;48.872;9.390;2023-05-07T07:50:42;98235.69;;;20.58;56.59
53719;BME280;39616;48.872;9.390;2023-05-07T07:53:12;98244.00;;;20.42;55.95
53719;BME280;39616;48.872;9.390;2023-05-07T07:55:43;98243.53;;;20.56;56.36
53719;BME280;39616;48.872;9.390;2023-05-07T07:58:13;98242.31;;;20.76;56.48
53719;BME280;39616;48.872;9.390;2023-05-07T08:00:44;98242.41;;;21.03;55.55
53719;BME280;39616;48.872;9.390;2023-05-07T08:03:14;98249.09;;;21.25;54.68
53719;BME280;39616;48.872;9.390;2023-05-07T08:05:46;98247.47;;;21.46;54.71
53719;BME280;39616;48.872;9.390;2023-05-07T08:08:16;98243.94;;;21.73;54.35
53719;BME280;39616;48.872;9.390;2023-05-07T08:10:47;98255.81;;;21.50;54.77
53719;BME280;39616;48.872;9.390;2023-05-07T08:13:20;98255.38;;;21.02;56.56
53719;BME280;39616;48.872;9.390;2023-05-07T08:15:50;98258.75;;;20.92;56.96
53719;BME280;39616;48.872;9.390;2023-05-07T08:18:20;98250.38;;;20.85;57.62
53719;BME280;39616;48.872;9.390;2023-05-07T08:20:51;98254.31;;;20.87;57.74
53719;BME280;39616;48.872;9.390;2023-05-07T08:23:21;98252.06;;;20.93;57.43
53719;BME280;39616;48.872;9.390;2023-05-07T08:25:53;98250.84;;;20.90;57.90
53719;BME280;39616;48.872;9.390;2023-05-07T08:28:23;98250.97;;;20.97;57.77
53719;BME280;39616;48.872;9.390;2023-05-07T08:30:55;98241.97;;;21.01;58.31
53719;BME280;39616;48.872;9.390;2023-05-07T08:33:27;98241.09;;;21.19;57.07
53719;BME280;39616;48.872;9.390;2023-05-07T08:35:57;98240.09;;;21.31;57.02
53719;BME280;39616;48.872;9.390;2023-05-07T08:38:28;98237.09;;;21.36;57.64
53719;BME280;39616;48.872;9.390;2023-05-07T08:40:58;98241.44;;;21.64;56.31
53719;BME280;39616;48.872;9.390;2023-05-07T08:43:31;98240.53;;;21.83;55.95
53719;BME280;39616;48.872;9.390;2023-05-07T08:46:04;98246.28;;;22.01;55.12
53719;BME280;39616;48.872;9.390;2023-05-07T08:48:35;98243.78;;;22.18;54.86
53719;BME280;39616;48.872;9.390;2023-05-07T08:51:06;98238.16;;;22.11;54.45
53719;BME280;39616;48.872;9.390;2023-05-07T08:53:36;98238.75;;;22.24;55.30
53719;BME280;39616;48.872;9.390;2023-05-07T08:56:11;98242.66;;;22.23;54.81
53719;BME280;39616;48.872;9.390;2023-05-07T08:58:44;98241.66;;;22.72;54.54
53719;BME280;39616;48.872;9.390;2023-05-07T09:01:16;98246.03;;;23.14;53.03
53719;BME280;39616;48.872;9.390;2023-05-07T09:03:47;98244.78;;;23.59;51.81
53719;BME280;39616;48.872;9.390;2023-05-07T09:06:17;98251.75;;;23.87;51.17
53719;BME280;39616;48.872;9.390;2023-05-07T09:08:54;98241.38;;;24.46;48.89
53719;BME280;39616;48.872;9.390;2023-05-07T09:11:25;98237.56;;;25.29;48.17
53719;BME280;39616;48.872;9.390;2023-05-07T09:13:56;98241.16;;;25.34;47.78
53719;BME280;39616;48.872;9.390;2023-05-07T09:16:30;98240.75;;;25.28;47.40
53719;BME280;39616;48.872;9.390;2023-05-07T09:19:01;98243.50;;;25.64;46.20
53719;BME280;39616;48.872;9.390;2023-05-07T09:21:31;98239.16;;;25.30;46.92
53719;BME280;39616;48.872;9.390;2023-05-07T09:24:01;98238.31;;;25.62;46.75
53719;BME280;39616;48.872;9.390;2023-05-07T09:26:32;98235.16;;;25.67;45.98
53719;BME280;39616;48.872;9.390;2023-05-07T09:29:04;98229.19;;;25.76;45.92
53719;BME280;39616;48.872;9.390;2023-05-07T09:31:37;98231.16;;;25.93;45.88
53719;BME280;39616;48.872;9.390;2023-05-07T09:34:07;98225.63;;;25.83;45.18
53719;BME280;39616;48.872;9.390;2023-05-07T09:36:38;98228.78;;;24.92;46.19
53719;BME280;39616;48.872;9.390;2023-05-07T09:39:08;98226.88;;;25.39;46.39
53719;BME280;39616;48.872;9.390;2023-05-07T09:41:48;98228.81;;;25.70;44.61
53719;BME280;39616;48.872;9.390;2023-05-07T09:44:20;98220.03;;;25.97;44.38
53719;BME280;39616;48.872;9.390;2023-05-07T09:46:54;98213.38;;;26.68;43.35
53719;BME280;39616;48.872;9.390;2023-05-07T09:49:28;98219.06;;;26.43;43.91
53719;BME280;39616;48.872;9.390;2023-05-07T09:52:04;98223.66;;;25.83;44.62
53719;BME280;39616;48.872;9.390;2023-05-07T09:54:36;98232.34;;;24.89;45.97
53719;BME280;39616;48.872;9.390;2023-05-07T09:57:09;98228.31;;;24.57;47.70
53719;BME280;39616;48.872;9.390;2023-05-07T09:59:42;98230.38;;;23.88;47.30
53719;BME280;39616;48.872;9.390;2023-05-07T10:02:14;98223.44;;;23.60;47.71
53719;BME280;39616;48.872;9.390;2023-05-07T10:04:46;98222.22;;;23.50;49.86
53719;BME280;39616;48.872;9.390;2023-05-07T10:07:17;98222.22;;;23.50;49.22
53719;BME280;39616;48.872;9.390;2023-05-07T10:09:48;98227.78;;;23.54;48.85
53719;BME280;39616;48.872;9.390;2023-05-07T10:12:19;98214.34;;;23.56;49.09
53719;BME280;39616;48.872;9.390;2023-05-07T10:14:52;98215.25;;;23.19;48.59
53719;BME280;39616;48.872;9.390;2023-05-07T10:17:23;98213.31;;;23.23;50.30
53719;BME280;39616;48.872;9.390;2023-05-07T10:19:53;98218.06;;;23.26;49.58
53719;BME280;39616;48.872;9.390;2023-05-07T10:22:25;98210.94;;;23.22;49.35
53719;BME280;39616;48.872;9.390;2023-05-07T10:24:59;98212.09;;;23.17;50.01
53719;BME280;39616;48.872;9.390;2023-05-07T10:27:32;98212.28;;;22.94;49.42
53719;BME280;39616;48.872;9.390;2023-05-07T10:30:28;98205.53;;;22.92;49.88
53719;BME280;39616;48.872;9.390;2023-05-07T10:33:01;98200.53;;;23.08;48.70
53719;BME280;39616;48.872;9.390;2023-05-07T10:35:43;98200.94;;;23.61;48.71
53719;BME280;39616;48.872;9.390;2023-05-07T10:38:14;98199.94;;;23.91;47.62
53719;BME280;39616;48.872;9.390;2023-05-07T10:40:47;98194.16;;;24.28;46.84
53719;BME280;39616;48.872;9.390;2023-05-07T10:43:17;98198.66;;;24.79;45.54
53719;BME280;39616;48.872;9.390;2023-05-07T10:46:19;98191.19;;;25.34;44.69
53719;BME280;39616;48.872;9.390;2023-05-07T10:49:07;98193.09;;;25.90;43.25
53719;BME280;39616;48.872;9.390;2023-05-07T10:51:38;98184.88;;;26.53;43.85
53719;BME280;39616;48.872;9.390;2023-05-07T10:56:43;98183.06;;;26.88;42.77
53719;BME280;39616;48.872;9.390;2023-05-07T11:01:54;98188.44;;;26.54;42.62
53719;BME280;39616;48.872;9.390;2023-05-07T11:04:25;98187.44;;;26.12;41.99
53719;BME280;39616;48.872;9.390;2023-05-07T11:15:08;98185.59;;;25.48;42.21
53719;BME280;39616;48.872;9.390;2023-05-07T11:17:58;98181.25;;;25.36;43.24
53719;BME280;39616;48.872;9.390;2023-05-07T11:20:59;98185.66;;;25.26;43.00
53719;BME280;39616;48.872;9.390;2023-05-07T11:26:07;98179.28;;;25.33;42.98
53719;BME280;39616;48.872;9.390;2023-05-07T11:28:40;98174.13;;;25.32;43.66
53719;BME280;39616;48.872;9.390;2023-05-07T11:31:10;98174.94;;;25.14;43.53
53719;BME280;39616;48.872;9.390;2023-05-07T11:33:43;98171.38;;;25.21;44.18
53719;BME280;39616;48.872;9.390;2023-05-07T11:36:14;98172.94;;;25.29;43.52
53719;BME280;39616;48.872;9.390;2023-05-07T11:38:45;98171.38;;;25.14;43.45
53719;BME280;39616;48.872;9.390;2023-05-07T11:41:16;98178.09;;;24.95;43.88
53719;BME280;39616;48.872;9.390;2023-05-07T11:43:58;98163.81;;;24.96;43.97
53719;BME280;39616;48.872;9.390;2023-05-07T11:46:29;98168.16;;;24.72;44.64
53719;BME280;39616;48.872;9.390;2023-05-07T11:49:00;98161.78;;;24.50;44.63
53719;BME280;39616;48.872;9.390;2023-05-07T11:51:30;98165.69;;;24.39;44.77
53719;BME280;39616;48.872;9.390;2023-05-07T11:54:03;98166.53;;;24.50;45.11
53719;BME280;39616;48.872;9.390;2023-05-07T11:56:34;98164.16;;;24.55;43.95
53719;BME280;39616;48.872;9.390;2023-05-07T11:59:05;98161.84;;;24.93;44.52
53719;BME280;39616;48.872;9.390;2023-05-07T12:01:36;98159.06;;;25.15;43.88
53719;BME280;39616;48.872;9.390;2023-05-07T12:04:07;98167.81;;;25.13;43.09
53719;BME280;39616;48.872;9.390;2023-05-07T12:06:37;98163.81;;;25.07;42.67
53719;BME280;39616;48.872;9.390;2023-05-07T12:09:08;98165.78;;;24.96;43.15
53719;BME280;39616;48.872;9.390;2023-05-07T12:11:45;98180.03;;;24.69;44.08
53719;BME280;39616;48.872;9.390;2023-05-07T12:14:16;98173.69;;;24.62;44.25
53719;BME280;39616;48.872;9.390;2023-05-07T12:16:46;98180.78;;;24.52;45.25
53719;BME280;39616;48.872;9.390;2023-05-07T12:19:16;98174.38;;;24.33;44.73
53719;BME280;39616;48.872;9.390;2023-05-07T12:21:47;98179.09;;;24.22;44.88
53719;BME280;39616;48.872;9.390;2023-05-07T12:24:18;98180.22;;;24.03;44.62
53719;BME280;39616;48.872;9.390;2023-05-07T12:26:48;98171.06;;;23.92;45.17
53719;BME280;39616;48.872;9.390;2023-05-07T12:29:21;98171.81;;;23.85;45.58
53719;BME280;39616;48.872;9.390;2023-05-07T12:31:52;98167.78;;;23.69;45.39
53719;BME280;39616;48.872;9.390;2023-05-07T12:34:23;98165.31;;;23.60;45.74
53719;BME280;39616;48.872;9.390;2023-05-07T12:36:53;98164.09;;;23.47;45.30
53719;BME280;39616;48.872;9.390;2023-05-07T12:39:23;98174.72;;;23.45;46.14
53719;BME280;39616;48.872;9.390;2023-05-07T12:41:54;98184.13;;;23.33;46.14
53719;BME280;39616;48.872;9.390;2023-05-07T12:44:29;98176.19;;;23.24;46.39
53719;BME280;39616;48.872;9.390;2023-05-07T12:47:03;98182.38;;;23.07;47.00
53719;BME280;39616;48.872;9.390;2023-05-07T12:49:34;98184.69;;;23.01;47.30
53719;BME280;39616;48.872;9.390;2023-05-07T12:52:07;98182.25;;;22.93;47.18
53719;BME280;39616;48.872;9.390;2023-05-07T12:54:38;98188.06;;;22.84;47.46
53719;BME280;39616;48.872;9.390;2023-05-07T12:57:09;98184.84;;;22.78;48.12
53719;BME280;39616;48.872;9.390;2023-05-07T12:59:41;98194.31;;;22.77;46.90
53719;BME280;39616;48.872;9.390;2023-05-07T13:02:11;98188.31;;;22.72;48.15
53719;BME280;39616;48.872;9.390;2023-05-07T13:04:42;98187.50;;;22.67;47.86
53719;BME280;39616;48.872;9.390;2023-05-07T13:07:12;98185.84;;;22.59;48.98
53719;BME280;39616;48.872;9.390;2023-05-07T13:09:42;98178.13;;;22.38;48.56
53719;BME280;39616;48.872;9.390;2023-05-07T13:12:13;98186.38;;;22.35;48.95
53719;BME280;39616;48.872;9.390;2023-05-07T13:14:43;98194.53;;;22.21;52.39
53719;BME280;39616;48.872;9.390;2023-05-07T13:17:13;98200.19;;;22.05;51.94
53719;BME280;39616;48.872;9.390;2023-05-07T13:19:43;98205.44;;;21.83;52.84
53719;BME280;39616;48.872;9.390;2023-05-07T13:22:14;98206.19;;;21.54;56.26
53719;BME280;39616;48.872;9.390;2023-05-07T13:24:44;98220.81;;;21.31;61.13
53719;BME280;39616;48.872;9.390;2023-05-07T13:27:14;98222.47;;;21.13;61.15
53719;BME280;39616;48.872;9.390;2023-05-07T13:29:45;98224.44;;;20.66;62.98
53719;BME280;39616;48.872;9.390;2023-05-07T13:32:15;98236.69;;;20.30;64.19